sensor_id;sensor_type;location;lat;lon;timestamp;P1;durP1;ratioP1;P2;durP2;ratioP2
26656;SDS011;14279;50.010;8.260;2022-08-01T00:01:37;1.20;;;1.00;;
26656;SDS011;14279;50.010;8.260;2022-08-01T00:04:02;2.90;;;1.17;;
26656;SDS011;14279;50.010;8.260;2022-08-01T00:06:28;1.40;;;1.30;;
26656;SDS011;14279;50.010;8.260;2022-08-01T00:08:53;2.03;;;1.37;;
26656;SDS011;14279;50.010;8.260;2022-08-01T00:11:19;1.70;;;1.40;;
26656;SDS011;14279;50.010;8.260;2022-08-01T00:13:44;2.60;;;1.20;;
26656;SDS011;14279;50.010;8.260;2022-08-01T00:16:10;2.50;;;1.23;;
26656;SDS011;14279;50.010;8.260;2022-08-01T00:18:35;2.97;;;1.30;;
26656;SDS011;14279;50.010;8.260;2022-08-01T00:21:01;3.83;;;1.40;;
26656;SDS011;14279;50.010;8.260;2022-08-01T00:23:27;2.20;;;1.10;;
26656;SDS011;14279;50.010;8.260;2022-08-01T00:25:53;1.50;;;1.00;;
26656;SDS011;14279;50.010;8.260;2022-08-01T00:28:18;1.83;;;1.20;;
26656;SDS011;14279;50.010;8.260;2022-08-01T00:30:43;1.20;;;0.90;;
26656;SDS011;14279;50.010;8.260;2022-08-01T00:33:08;4.60;;;1.27;;
26656;SDS011;14279;50.010;8.260;2022-08-01T00:35:34;1.70;;;1.10;;
26656;SDS011;14279;50.010;8.260;2022-08-01T00:37:59;1.73;;;1.13;;
26656;SDS011;14279;50.010;8.260;2022-08-01T00:40:24;6.03;;;1.10;;
26656;SDS011;14279;50.010;8.260;2022-08-01T00:42:49;2.93;;;1.17;;
26656;SDS011;14279;50.010;8.260;2022-08-01T00:45:15;3.00;;;1.23;;
26656;SDS011;14279;50.010;8.260;2022-08-01T00:47:40;1.37;;;1.00;;
26656;SDS011;14279;50.010;8.260;2022-08-01T00:50:06;7.60;;;1.70;;
26656;SDS011;14279;50.010;8.260;2022-08-01T00:52:32;4.50;;;1.40;;
26656;SDS011;14279;50.010;8.260;2022-08-01T00:54:58;2.20;;;1.33;;
26656;SDS011;14279;50.010;8.260;2022-08-01T00:57:24;2.27;;;1.10;;
26656;SDS011;14279;50.010;8.260;2022-08-01T00:59:49;1.10;;;1.00;;
26656;SDS011;14279;50.010;8.260;2022-08-01T01:02:15;2.27;;;1.47;;
26656;SDS011;14279;50.010;8.260;2022-08-01T01:04:41;1.80;;;0.90;;
26656;SDS011;14279;50.010;8.260;2022-08-01T01:07:21;4.10;;;1.40;;
26656;SDS011;14279;50.010;8.260;2022-08-01T01:10:06;3.03;;;1.47;;
26656;SDS011;14279;50.010;8.260;2022-08-01T01:12:56;3.73;;;1.30;;
26656;SDS011;14279;50.010;8.260;2022-08-01T01:15:33;1.93;;;1.30;;
26656;SDS011;14279;50.010;8.260;2022-08-01T01:18:11;1.63;;;1.17;;
26656;SDS011;14279;50.010;8.260;2022-08-01T01:20:43;2.60;;;1.40;;
26656;SDS011;14279;50.010;8.260;2022-08-01T01:23:21;1.73;;;1.20;;
26656;SDS011;14279;50.010;8.260;2022-08-01T01:31:26;7.33;;;1.43;;
26656;SDS011;14279;50.010;8.260;2022-08-01T01:33:53;1.20;;;1.10;;
26656;SDS011;14279;50.010;8.260;2022-08-01T01:36:21;4.60;;;1.33;;
26656;SDS011;14279;50.010;8.260;2022-08-01T01:38:50;2.80;;;1.40;;
26656;SDS011;14279;50.010;8.260;2022-08-01T01:41:16;1.40;;;1.23;;
26656;SDS011;14279;50.010;8.260;2022-08-01T01:43:43;1.30;;;1.13;;
26656;SDS011;14279;50.010;8.260;2022-08-01T01:46:11;4.80;;;1.70;;
26656;SDS011;14279;50.010;8.260;2022-08-01T01:48:40;1.60;;;1.40;;
26656;SDS011;14279;50.010;8.260;2022-08-01T01:51:09;1.83;;;1.23;;
26656;SDS011;14279;50.010;8.260;2022-08-01T01:53:36;2.50;;;1.40;;
26656;SDS011;14279;50.010;8.260;2022-08-01T01:56:03;3.20;;;1.30;;
26656;SDS011;14279;50.010;8.260;2022-08-01T01:58:28;2.30;;;1.40;;
26656;SDS011;14279;50.010;8.260;2022-08-01T02:00:56;1.20;;;1.10;;
26656;SDS011;14279;50.010;8.260;2022-08-01T02:03:24;3.30;;;1.47;;
26656;SDS011;14279;50.010;8.260;2022-08-01T02:05:51;1.43;;;1.03;;
26656;SDS011;14279;50.010;8.260;2022-08-01T02:08:19;1.27;;;1.17;;
26656;SDS011;14279;50.010;8.260;2022-08-01T02:10:45;3.50;;;1.30;;
26656;SDS011;14279;50.010;8.260;2022-08-01T02:13:31;3.97;;;1.50;;
26656;SDS011;14279;50.010;8.260;2022-08-01T02:15:59;1.43;;;1.10;;
26656;SDS011;14279;50.010;8.260;2022-08-01T02:18:25;2.30;;;1.20;;
26656;SDS011;14279;50.010;8.260;2022-08-01T02:20:51;2.40;;;1.33;;
26656;SDS011;14279;50.010;8.260;2022-08-01T02:23:19;3.50;;;1.10;;
26656;SDS011;14279;50.010;8.260;2022-08-01T02:25:48;3.70;;;1.40;;
26656;SDS011;14279;50.010;8.260;2022-08-01T02:28:17;2.47;;;1.30;;
26656;SDS011;14279;50.010;8.260;2022-08-01T02:30:50;1.37;;;1.27;;
26656;SDS011;14279;50.010;8.260;2022-08-01T02:33:20;2.23;;;1.20;;
26656;SDS011;14279;50.010;8.260;2022-08-01T02:35:54;4.70;;;1.67;;
26656;SDS011;14279;50.010;8.260;2022-08-01T02:38:23;1.10;;;1.10;;
26656;SDS011;14279;50.010;8.260;2022-08-01T02:40:52;1.60;;;1.50;;
26656;SDS011;14279;50.010;8.260;2022-08-01T02:43:20;1.37;;;1.07;;
26656;SDS011;14279;50.010;8.260;2022-08-01T02:45:52;2.53;;;1.60;;
26656;SDS011;14279;50.010;8.260;2022-08-01T02:48:20;1.70;;;1.27;;
26656;SDS011;14279;50.010;8.260;2022-08-01T02:50:48;4.00;;;1.43;;
26656;SDS011;14279;50.010;8.260;2022-08-01T02:53:16;8.70;;;1.23;;
26656;SDS011;14279;50.010;8.260;2022-08-01T02:55:45;3.20;;;1.23;;
26656;SDS011;14279;50.010;8.260;2022-08-01T02:58:12;1.30;;;1.20;;
26656;SDS011;14279;50.010;8.260;2022-08-01T03:00:41;3.17;;;1.10;;
26656;SDS011;14279;50.010;8.260;2022-08-01T03:03:08;1.30;;;1.20;;
26656;SDS011;14279;50.010;8.260;2022-08-01T03:05:35;1.67;;;1.10;;
26656;SDS011;14279;50.010;8.260;2022-08-01T03:08:01;4.20;;;1.53;;
26656;SDS011;14279;50.010;8.260;2022-08-01T03:10:28;1.33;;;1.10;;
26656;SDS011;14279;50.010;8.260;2022-08-01T03:12:55;3.07;;;1.20;;
26656;SDS011;14279;50.010;8.260;2022-08-01T03:15:24;2.07;;;1.27;;
26656;SDS011;14279;50.010;8.260;2022-08-01T03:17:51;3.23;;;1.50;;
26656;SDS011;14279;50.010;8.260;2022-08-01T03:20:18;2.50;;;1.20;;
26656;SDS011;14279;50.010;8.260;2022-08-01T03:22:45;1.60;;;1.17;;
26656;SDS011;14279;50.010;8.260;2022-08-01T03:25:14;4.20;;;1.20;;
26656;SDS011;14279;50.010;8.260;2022-08-01T03:27:41;4.73;;;1.20;;
26656;SDS011;14279;50.010;8.260;2022-08-01T03:30:08;3.80;;;1.23;;
26656;SDS011;14279;50.010;8.260;2022-08-01T03:32:35;3.40;;;1.10;;
26656;SDS011;14279;50.010;8.260;2022-08-01T03:35:04;1.87;;;1.40;;
26656;SDS011;14279;50.010;8.260;2022-08-01T03:37:55;4.83;;;1.40;;
26656;SDS011;14279;50.010;8.260;2022-08-01T03:42:52;2.50;;;1.17;;
26656;SDS011;14279;50.010;8.260;2022-08-01T03:45:23;3.97;;;1.37;;
26656;SDS011;14279;50.010;8.260;2022-08-01T03:47:52;2.20;;;1.43;;
26656;SDS011;14279;50.010;8.260;2022-08-01T03:50:24;1.20;;;1.10;;
26656;SDS011;14279;50.010;8.260;2022-08-01T03:52:50;1.30;;;1.10;;
26656;SDS011;14279;50.010;8.260;2022-08-01T03:55:15;2.50;;;1.27;;
26656;SDS011;14279;50.010;8.260;2022-08-01T03:57:45;2.23;;;1.60;;
26656;SDS011;14279;50.010;8.260;2022-08-01T04:00:22;7.57;;;1.70;;
26656;SDS011;14279;50.010;8.260;2022-08-01T04:02:55;2.63;;;1.60;;
26656;SDS011;14279;50.010;8.260;2022-08-01T04:05:21;3.00;;;1.57;;
26656;SDS011;14279;50.010;8.260;2022-08-01T04:07:47;1.83;;;1.37;;
26656;SDS011;14279;50.010;8.260;2022-08-01T04:10:21;4.87;;;1.70;;
26656;SDS011;14279;50.010;8.260;2022-08-01T04:12:51;3.70;;;1.47;;
26656;SDS011;14279;50.010;8.260;2022-08-01T04:15:17;2.80;;;1.30;;
26656;SDS011;14279;50.010;8.260;2022-08-01T04:18:08;2.13;;;1.20;;
26656;SDS011;14279;50.010;8.260;2022-08-01T04:20:36;3.70;;;1.30;;
26656;SDS011;14279;50.010;8.260;2022-08-01T04:23:26;2.10;;;1.50;;
26656;SDS011;14279;50.010;8.260;2022-08-01T04:26:17;1.33;;;1.00;;
26656;SDS011;14279;50.010;8.260;2022-08-01T04:28:44;1.53;;;1.37;;
26656;SDS011;14279;50.010;8.260;2022-08-01T04:31:11;2.30;;;1.50;;
26656;SDS011;14279;50.010;8.260;2022-08-01T04:33:40;2.50;;;1.47;;
26656;SDS011;14279;50.010;8.260;2022-08-01T04:36:10;1.70;;;1.30;;
26656;SDS011;14279;50.010;8.260;2022-08-01T04:38:37;2.53;;;1.47;;
26656;SDS011;14279;50.010;8.260;2022-08-01T04:41:05;1.63;;;1.53;;
26656;SDS011;14279;50.010;8.260;2022-08-01T04:43:35;2.27;;;1.30;;
26656;SDS011;14279;50.010;8.260;2022-08-01T04:46:02;3.90;;;1.67;;
26656;SDS011;14279;50.010;8.260;2022-08-01T04:48:28;2.40;;;1.80;;
26656;SDS011;14279;50.010;8.260;2022-08-01T04:50:55;4.40;;;1.50;;
26656;SDS011;14279;50.010;8.260;2022-08-01T04:53:20;1.33;;;1.23;;
26656;SDS011;14279;50.010;8.260;2022-08-01T04:59:26;1.77;;;1.30;;
26656;SDS011;14279;50.010;8.260;2022-08-01T05:02:05;8.37;;;1.30;;
26656;SDS011;14279;50.010;8.260;2022-08-01T05:04:31;2.10;;;1.33;;
26656;SDS011;14279;50.010;8.260;2022-08-01T05:07:03;1.47;;;1.10;;
26656;SDS011;14279;50.010;8.260;2022-08-01T05:09:29;2.50;;;1.77;;
26656;SDS011;14279;50.010;8.260;2022-08-01T05:11:55;3.20;;;1.80;;
26656;SDS011;14279;50.010;8.260;2022-08-01T05:14:23;2.40;;;1.57;;
26656;SDS011;14279;50.010;8.260;2022-08-01T05:16:48;2.63;;;1.40;;
26656;SDS011;14279;50.010;8.260;2022-08-01T05:19:13;1.47;;;1.30;;
26656;SDS011;14279;50.010;8.260;2022-08-01T05:21:44;2.20;;;1.60;;
26656;SDS011;14279;50.010;8.260;2022-08-01T05:28:49;3.60;;;1.50;;
26656;SDS011;14279;50.010;8.260;2022-08-01T05:31:42;1.83;;;1.63;;
26656;SDS011;14279;50.010;8.260;2022-08-01T05:34:16;3.70;;;1.40;;
26656;SDS011;14279;50.010;8.260;2022-08-01T05:36:42;3.13;;;1.40;;
26656;SDS011;14279;50.010;8.260;2022-08-01T05:39:08;3.57;;;1.70;;
26656;SDS011;14279;50.010;8.260;2022-08-01T05:41:33;3.47;;;1.67;;
26656;SDS011;14279;50.010;8.260;2022-08-01T05:44:01;4.00;;;1.23;;
26656;SDS011;14279;50.010;8.260;2022-08-01T05:46:27;5.00;;;1.50;;
26656;SDS011;14279;50.010;8.260;2022-08-01T05:48:53;2.00;;;1.37;;
26656;SDS011;14279;50.010;8.260;2022-08-01T05:51:18;4.13;;;1.80;;
26656;SDS011;14279;50.010;8.260;2022-08-01T05:53:43;2.20;;;1.50;;
26656;SDS011;14279;50.010;8.260;2022-08-01T05:56:09;7.30;;;1.80;;
26656;SDS011;14279;50.010;8.260;2022-08-01T05:58:34;1.27;;;1.17;;
26656;SDS011;14279;50.010;8.260;2022-08-01T06:00:59;3.07;;;1.50;;
26656;SDS011;14279;50.010;8.260;2022-08-01T06:06:31;3.00;;;1.50;;
26656;SDS011;14279;50.010;8.260;2022-08-01T06:08:56;4.63;;;1.20;;
26656;SDS011;14279;50.010;8.260;2022-08-01T06:11:21;3.40;;;1.73;;
26656;SDS011;14279;50.010;8.260;2022-08-01T06:13:47;2.17;;;1.40;;
26656;SDS011;14279;50.010;8.260;2022-08-01T06:16:12;3.70;;;1.23;;
26656;SDS011;14279;50.010;8.260;2022-08-01T06:18:37;2.00;;;1.50;;
26656;SDS011;14279;50.010;8.260;2022-08-01T06:21:02;1.70;;;1.30;;
26656;SDS011;14279;50.010;8.260;2022-08-01T06:23:28;1.83;;;1.00;;
26656;SDS011;14279;50.010;8.260;2022-08-01T06:25:54;4.67;;;1.40;;
26656;SDS011;14279;50.010;8.260;2022-08-01T06:28:25;1.67;;;1.57;;
26656;SDS011;14279;50.010;8.260;2022-08-01T06:30:51;3.77;;;1.50;;
26656;SDS011;14279;50.010;8.260;2022-08-01T06:33:16;2.97;;;1.23;;
26656;SDS011;14279;50.010;8.260;2022-08-01T06:35:41;1.93;;;1.37;;
26656;SDS011;14279;50.010;8.260;2022-08-01T06:38:07;1.90;;;1.70;;
26656;SDS011;14279;50.010;8.260;2022-08-01T06:40:32;3.07;;;1.30;;
26656;SDS011;14279;50.010;8.260;2022-08-01T06:43:00;1.60;;;1.50;;
26656;SDS011;14279;50.010;8.260;2022-08-01T06:45:26;2.10;;;1.40;;
26656;SDS011;14279;50.010;8.260;2022-08-01T06:47:51;3.23;;;1.83;;
26656;SDS011;14279;50.010;8.260;2022-08-01T06:50:17;4.93;;;2.07;;
26656;SDS011;14279;50.010;8.260;2022-08-01T06:52:43;1.90;;;1.80;;
26656;SDS011;14279;50.010;8.260;2022-08-01T06:55:08;3.90;;;1.63;;
26656;SDS011;14279;50.010;8.260;2022-08-01T06:57:34;2.80;;;1.47;;
26656;SDS011;14279;50.010;8.260;2022-08-01T07:00:06;1.80;;;1.70;;
26656;SDS011;14279;50.010;8.260;2022-08-01T07:02:36;4.83;;;2.17;;
26656;SDS011;14279;50.010;8.260;2022-08-01T07:05:02;2.40;;;1.50;;
26656;SDS011;14279;50.010;8.260;2022-08-01T07:07:28;3.13;;;1.90;;
26656;SDS011;14279;50.010;8.260;2022-08-01T07:09:54;2.40;;;2.13;;
26656;SDS011;14279;50.010;8.260;2022-08-01T07:12:19;4.33;;;1.70;;
26656;SDS011;14279;50.010;8.260;2022-08-01T07:14:44;2.00;;;1.80;;
26656;SDS011;14279;50.010;8.260;2022-08-01T07:17:10;3.73;;;1.50;;
26656;SDS011;14279;50.010;8.260;2022-08-01T07:19:35;2.40;;;2.10;;
26656;SDS011;14279;50.010;8.260;2022-08-01T07:22:01;3.77;;;1.90;;
26656;SDS011;14279;50.010;8.260;2022-08-01T07:24:39;3.40;;;1.90;;
26656;SDS011;14279;50.010;8.260;2022-08-01T07:27:07;3.87;;;2.23;;
26656;SDS011;14279;50.010;8.260;2022-08-01T07:29:33;10.73;;;2.20;;
26656;SDS011;14279;50.010;8.260;2022-08-01T07:31:58;2.40;;;1.67;;
26656;SDS011;14279;50.010;8.260;2022-08-01T07:34:26;3.30;;;1.97;;
26656;SDS011;14279;50.010;8.260;2022-08-01T07:36:56;2.10;;;2.00;;
26656;SDS011;14279;50.010;8.260;2022-08-01T07:42:23;2.53;;;2.00;;
26656;SDS011;14279;50.010;8.260;2022-08-01T07:44:48;4.90;;;2.20;;
26656;SDS011;14279;50.010;8.260;2022-08-01T07:47:13;8.60;;;2.37;;
26656;SDS011;14279;50.010;8.260;2022-08-01T07:49:40;2.63;;;2.20;;
26656;SDS011;14279;50.010;8.260;2022-08-01T08:06:13;5.33;;;2.37;;
26656;SDS011;14279;50.010;8.260;2022-08-01T08:09:37;7.83;;;2.30;;
26656;SDS011;14279;50.010;8.260;2022-08-01T08:12:06;2.20;;;2.00;;
26656;SDS011;14279;50.010;8.260;2022-08-01T08:14:31;3.30;;;2.07;;
26656;SDS011;14279;50.010;8.260;2022-08-01T08:16:56;4.63;;;2.20;;
26656;SDS011;14279;50.010;8.260;2022-08-01T08:19:22;2.30;;;2.00;;
26656;SDS011;14279;50.010;8.260;2022-08-01T08:21:47;2.33;;;1.87;;
26656;SDS011;14279;50.010;8.260;2022-08-01T08:24:15;4.50;;;2.40;;
26656;SDS011;14279;50.010;8.260;2022-08-01T08:26:47;2.10;;;2.00;;
26656;SDS011;14279;50.010;8.260;2022-08-01T08:29:13;3.57;;;2.00;;
26656;SDS011;14279;50.010;8.260;2022-08-01T08:31:39;3.03;;;2.40;;
26656;SDS011;14279;50.010;8.260;2022-08-01T08:34:04;2.90;;;2.30;;
26656;SDS011;14279;50.010;8.260;2022-08-01T08:36:30;5.57;;;2.73;;
26656;SDS011;14279;50.010;8.260;2022-08-01T08:38:55;2.63;;;2.10;;
26656;SDS011;14279;50.010;8.260;2022-08-01T08:41:21;3.37;;;2.17;;
26656;SDS011;14279;50.010;8.260;2022-08-01T08:43:47;4.30;;;2.90;;
26656;SDS011;14279;50.010;8.260;2022-08-01T08:46:13;4.70;;;2.93;;
26656;SDS011;14279;50.010;8.260;2022-08-01T08:48:42;4.07;;;3.07;;
26656;SDS011;14279;50.010;8.260;2022-08-01T08:51:07;4.03;;;2.67;;
26656;SDS011;14279;50.010;8.260;2022-08-01T08:53:36;2.37;;;2.27;;
26656;SDS011;14279;50.010;8.260;2022-08-01T08:56:03;4.63;;;2.67;;
26656;SDS011;14279;50.010;8.260;2022-08-01T08:58:31;3.23;;;2.57;;
26656;SDS011;14279;50.010;8.260;2022-08-01T09:01:02;4.80;;;2.80;;
26656;SDS011;14279;50.010;8.260;2022-08-01T09:03:30;3.87;;;2.40;;
26656;SDS011;14279;50.010;8.260;2022-08-01T09:05:55;2.87;;;2.67;;
26656;SDS011;14279;50.010;8.260;2022-08-01T09:08:22;3.00;;;2.70;;
26656;SDS011;14279;50.010;8.260;2022-08-01T09:11:07;4.37;;;3.27;;
26656;SDS011;14279;50.010;8.260;2022-08-01T09:13:32;4.20;;;2.97;;
26656;SDS011;14279;50.010;8.260;2022-08-01T09:15:58;4.20;;;3.00;;
26656;SDS011;14279;50.010;8.260;2022-08-01T09:23:36;5.97;;;2.70;;
26656;SDS011;14279;50.010;8.260;2022-08-01T09:26:14;2.97;;;2.67;;
26656;SDS011;14279;50.010;8.260;2022-08-01T09:28:41;2.63;;;2.47;;
26656;SDS011;14279;50.010;8.260;2022-08-01T09:31:08;3.23;;;2.60;;
26656;SDS011;14279;50.010;8.260;2022-08-01T09:33:48;6.50;;;2.50;;
26656;SDS011;14279;50.010;8.260;2022-08-01T09:36:22;3.10;;;2.70;;
26656;SDS011;14279;50.010;8.260;2022-08-01T09:38:50;5.20;;;2.40;;
26656;SDS011;14279;50.010;8.260;2022-08-01T09:41:16;3.50;;;2.27;;
26656;SDS011;14279;50.010;8.260;2022-08-01T09:43:49;3.63;;;2.87;;
26656;SDS011;14279;50.010;8.260;2022-08-01T09:46:15;2.20;;;2.00;;
26656;SDS011;14279;50.010;8.260;2022-08-01T09:48:54;2.63;;;2.20;;
26656;SDS011;14279;50.010;8.260;2022-08-01T09:51:33;2.40;;;2.20;;
26656;SDS011;14279;50.010;8.260;2022-08-01T09:54:00;3.17;;;2.20;;
26656;SDS011;14279;50.010;8.260;2022-08-01T09:56:34;5.13;;;2.47;;
26656;SDS011;14279;50.010;8.260;2022-08-01T10:02:31;3.97;;;2.83;;
26656;SDS011;14279;50.010;8.260;2022-08-01T10:04:57;4.03;;;2.40;;
26656;SDS011;14279;50.010;8.260;2022-08-01T10:07:23;3.00;;;2.30;;
26656;SDS011;14279;50.010;8.260;2022-08-01T10:09:49;3.87;;;2.60;;
26656;SDS011;14279;50.010;8.260;2022-08-01T10:12:19;6.13;;;2.27;;
26656;SDS011;14279;50.010;8.260;2022-08-01T10:14:53;2.83;;;2.03;;
26656;SDS011;14279;50.010;8.260;2022-08-01T10:17:20;5.00;;;2.00;;
26656;SDS011;14279;50.010;8.260;2022-08-01T10:19:48;2.73;;;2.00;;
26656;SDS011;14279;50.010;8.260;2022-08-01T10:22:15;4.23;;;2.10;;
26656;SDS011;14279;50.010;8.260;2022-08-01T10:24:43;2.60;;;2.20;;
26656;SDS011;14279;50.010;8.260;2022-08-01T10:27:34;2.03;;;1.80;;
26656;SDS011;14279;50.010;8.260;2022-08-01T10:30:22;2.80;;;2.20;;
26656;SDS011;14279;50.010;8.260;2022-08-01T10:39:42;5.13;;;1.97;;
26656;SDS011;14279;50.010;8.260;2022-08-01T10:42:23;2.40;;;2.00;;
26656;SDS011;14279;50.010;8.260;2022-08-01T10:45:01;1.80;;;1.70;;
26656;SDS011;14279;50.010;8.260;2022-08-01T10:47:34;2.10;;;1.90;;
26656;SDS011;14279;50.010;8.260;2022-08-01T10:53:28;2.70;;;2.30;;
26656;SDS011;14279;50.010;8.260;2022-08-01T10:59:50;3.37;;;1.80;;
26656;SDS011;14279;50.010;8.260;2022-08-01T11:02:26;2.10;;;1.90;;
26656;SDS011;14279;50.010;8.260;2022-08-01T11:05:04;3.17;;;2.10;;
26656;SDS011;14279;50.010;8.260;2022-08-01T11:10:21;2.77;;;2.10;;
26656;SDS011;14279;50.010;8.260;2022-08-01T11:12:47;2.80;;;1.83;;
26656;SDS011;14279;50.010;8.260;2022-08-01T11:25:27;1.90;;;1.80;;
26656;SDS011;14279;50.010;8.260;2022-08-01T11:28:26;2.40;;;1.90;;
26656;SDS011;14279;50.010;8.260;2022-08-01T11:31:49;2.53;;;1.80;;
26656;SDS011;14279;50.010;8.260;2022-08-01T11:34:15;1.70;;;1.60;;
26656;SDS011;14279;50.010;8.260;2022-08-01T11:36:40;2.60;;;2.03;;
26656;SDS011;14279;50.010;8.260;2022-08-01T11:41:32;3.33;;;1.67;;
26656;SDS011;14279;50.010;8.260;2022-08-01T11:44:03;1.90;;;1.73;;
26656;SDS011;14279;50.010;8.260;2022-08-01T11:49:44;2.13;;;1.90;;
26656;SDS011;14279;50.010;8.260;2022-08-01T11:52:19;2.07;;;1.83;;
26656;SDS011;14279;50.010;8.260;2022-08-01T11:55:15;1.80;;;1.70;;
26656;SDS011;14279;50.010;8.260;2022-08-01T11:57:41;2.37;;;2.10;;
26656;SDS011;14279;50.010;8.260;2022-08-01T12:00:14;3.80;;;2.43;;
26656;SDS011;14279;50.010;8.260;2022-08-01T12:02:45;2.77;;;2.10;;
26656;SDS011;14279;50.010;8.260;2022-08-01T12:05:12;2.93;;;1.87;;
26656;SDS011;14279;50.010;8.260;2022-08-01T12:07:40;6.10;;;2.20;;
26656;SDS011;14279;50.010;8.260;2022-08-01T12:12:34;6.63;;;1.57;;
26656;SDS011;14279;50.010;8.260;2022-08-01T12:15:02;3.90;;;2.13;;
26656;SDS011;14279;50.010;8.260;2022-08-01T12:17:38;2.33;;;1.97;;
26656;SDS011;14279;50.010;8.260;2022-08-01T12:20:06;3.80;;;1.90;;
26656;SDS011;14279;50.010;8.260;2022-08-01T12:22:34;4.80;;;2.10;;
26656;SDS011;14279;50.010;8.260;2022-08-01T12:36:03;5.10;;;2.13;;
26656;SDS011;14279;50.010;8.260;2022-08-01T12:39:39;2.03;;;1.93;;
26656;SDS011;14279;50.010;8.260;2022-08-01T12:43:03;5.90;;;1.70;;
26656;SDS011;14279;50.010;8.260;2022-08-01T12:46:18;3.50;;;2.00;;
26656;SDS011;14279;50.010;8.260;2022-08-01T13:19:46;3.60;;;2.10;;
26656;SDS011;14279;50.010;8.260;2022-08-01T13:54:54;5.17;;;2.13;;
26656;SDS011;14279;50.010;8.260;2022-08-01T14:05:11;3.40;;;2.30;;
26656;SDS011;14279;50.010;8.260;2022-08-01T14:08:53;4.40;;;2.00;;
26656;SDS011;14279;50.010;8.260;2022-08-01T14:11:52;3.20;;;2.37;;
26656;SDS011;14279;50.010;8.260;2022-08-01T14:14:59;4.90;;;2.07;;
26656;SDS011;14279;50.010;8.260;2022-08-01T14:21:42;5.37;;;2.10;;
26656;SDS011;14279;50.010;8.260;2022-08-01T14:25:22;4.40;;;2.53;;
26656;SDS011;14279;50.010;8.260;2022-08-01T14:31:49;10.93;;;2.50;;
26656;SDS011;14279;50.010;8.260;2022-08-01T14:34:29;5.50;;;2.00;;
26656;SDS011;14279;50.010;8.260;2022-08-01T14:44:29;4.53;;;2.60;;
26656;SDS011;14279;50.010;8.260;2022-08-01T15:11:21;3.57;;;3.27;;
26656;SDS011;14279;50.010;8.260;2022-08-01T15:17:10;3.60;;;2.90;;
26656;SDS011;14279;50.010;8.260;2022-08-01T15:19:36;4.50;;;2.80;;
26656;SDS011;14279;50.010;8.260;2022-08-01T15:22:08;5.23;;;2.50;;
26656;SDS011;14279;50.010;8.260;2022-08-01T15:27:55;5.47;;;3.03;;
26656;SDS011;14279;50.010;8.260;2022-08-01T15:34:01;5.53;;;3.50;;
26656;SDS011;14279;50.010;8.260;2022-08-01T15:53:30;4.77;;;2.97;;
26656;SDS011;14279;50.010;8.260;2022-08-01T16:19:05;5.60;;;2.93;;
26656;SDS011;14279;50.010;8.260;2022-08-01T16:29:21;4.23;;;2.60;;
26656;SDS011;14279;50.010;8.260;2022-08-01T16:38:10;4.87;;;2.87;;
26656;SDS011;14279;50.010;8.260;2022-08-01T16:40:37;5.03;;;3.20;;
26656;SDS011;14279;50.010;8.260;2022-08-01T16:43:03;3.37;;;2.67;;
26656;SDS011;14279;50.010;8.260;2022-08-01T16:45:28;4.50;;;2.23;;
26656;SDS011;14279;50.010;8.260;2022-08-01T16:47:54;3.83;;;2.63;;
26656;SDS011;14279;50.010;8.260;2022-08-01T16:50:20;4.57;;;2.53;;
26656;SDS011;14279;50.010;8.260;2022-08-01T16:52:46;5.57;;;2.53;;
26656;SDS011;14279;50.010;8.260;2022-08-01T16:58:40;4.23;;;2.87;;
26656;SDS011;14279;50.010;8.260;2022-08-01T17:01:17;9.13;;;2.73;;
26656;SDS011;14279;50.010;8.260;2022-08-01T17:56:23;8.27;;;3.33;;
26656;SDS011;14279;50.010;8.260;2022-08-01T17:58:51;6.03;;;3.13;;
26656;SDS011;14279;50.010;8.260;2022-08-01T18:01:17;3.03;;;2.40;;
26656;SDS011;14279;50.010;8.260;2022-08-01T18:07:33;7.13;;;4.37;;
26656;SDS011;14279;50.010;8.260;2022-08-01T18:10:43;3.92;;;2.90;;
26656;SDS011;14279;50.010;8.260;2022-08-01T18:17:39;3.83;;;3.00;;
26656;SDS011;14279;50.010;8.260;2022-08-01T18:21:13;5.43;;;3.17;;
26656;SDS011;14279;50.010;8.260;2022-08-01T18:28:29;5.65;;;3.38;;
26656;SDS011;14279;50.010;8.260;2022-08-01T18:32:12;4.65;;;3.65;;
26656;SDS011;14279;50.010;8.260;2022-08-01T18:34:37;5.07;;;3.07;;
26656;SDS011;14279;50.010;8.260;2022-08-01T18:37:02;3.10;;;2.60;;
26656;SDS011;14279;50.010;8.260;2022-08-01T18:39:28;2.70;;;2.37;;
26656;SDS011;14279;50.010;8.260;2022-08-01T18:41:53;5.07;;;3.10;;
26656;SDS011;14279;50.010;8.260;2022-08-01T18:44:18;4.70;;;3.00;;
26656;SDS011;14279;50.010;8.260;2022-08-01T18:46:47;4.70;;;2.47;;
26656;SDS011;14279;50.010;8.260;2022-08-01T18:49:13;10.20;;;2.40;;
26656;SDS011;14279;50.010;8.260;2022-08-01T18:51:46;3.43;;;2.90;;
26656;SDS011;14279;50.010;8.260;2022-08-01T18:54:32;3.57;;;2.70;;
26656;SDS011;14279;50.010;8.260;2022-08-01T18:56:58;3.13;;;2.30;;
26656;SDS011;14279;50.010;8.260;2022-08-01T18:59:42;5.67;;;2.60;;
26656;SDS011;14279;50.010;8.260;2022-08-01T19:02:13;6.03;;;2.57;;
26656;SDS011;14279;50.010;8.260;2022-08-01T19:04:38;3.33;;;3.07;;
26656;SDS011;14279;50.010;8.260;2022-08-01T19:07:04;6.27;;;2.93;;
26656;SDS011;14279;50.010;8.260;2022-08-01T19:09:29;11.63;;;3.70;;
26656;SDS011;14279;50.010;8.260;2022-08-01T19:11:57;4.10;;;3.13;;
26656;SDS011;14279;50.010;8.260;2022-08-01T19:14:23;11.90;;;3.80;;
26656;SDS011;14279;50.010;8.260;2022-08-01T19:19:51;4.23;;;3.10;;
26656;SDS011;14279;50.010;8.260;2022-08-01T19:22:21;3.70;;;3.20;;
26656;SDS011;14279;50.010;8.260;2022-08-01T19:24:49;4.43;;;3.60;;
26656;SDS011;14279;50.010;8.260;2022-08-01T19:27:22;5.93;;;3.07;;
26656;SDS011;14279;50.010;8.260;2022-08-01T19:29:54;5.50;;;3.60;;
26656;SDS011;14279;50.010;8.260;2022-08-01T19:32:36;14.87;;;4.07;;
26656;SDS011;14279;50.010;8.260;2022-08-01T19:35:08;11.50;;;2.80;;
26656;SDS011;14279;50.010;8.260;2022-08-01T19:37:38;11.37;;;3.10;;
26656;SDS011;14279;50.010;8.260;2022-08-01T19:40:09;3.30;;;3.00;;
26656;SDS011;14279;50.010;8.260;2022-08-01T19:42:38;6.93;;;3.50;;
26656;SDS011;14279;50.010;8.260;2022-08-01T19:45:06;4.20;;;3.53;;
26656;SDS011;14279;50.010;8.260;2022-08-01T19:47:31;11.10;;;3.30;;
26656;SDS011;14279;50.010;8.260;2022-08-01T19:49:57;3.77;;;3.40;;
26656;SDS011;14279;50.010;8.260;2022-08-01T19:52:24;4.70;;;2.93;;
26656;SDS011;14279;50.010;8.260;2022-08-01T19:54:53;6.90;;;3.53;;
26656;SDS011;14279;50.010;8.260;2022-08-01T19:57:19;4.90;;;3.40;;
26656;SDS011;14279;50.010;8.260;2022-08-01T19:59:46;6.67;;;3.80;;
26656;SDS011;14279;50.010;8.260;2022-08-01T20:02:16;14.77;;;3.60;;
26656;SDS011;14279;50.010;8.260;2022-08-01T20:04:43;3.90;;;3.23;;
26656;SDS011;14279;50.010;8.260;2022-08-01T20:07:10;3.47;;;3.17;;
26656;SDS011;14279;50.010;8.260;2022-08-01T20:09:35;3.70;;;3.00;;
26656;SDS011;14279;50.010;8.260;2022-08-01T20:12:03;6.70;;;3.47;;
26656;SDS011;14279;50.010;8.260;2022-08-01T20:14:30;4.20;;;3.50;;
26656;SDS011;14279;50.010;8.260;2022-08-01T20:16:55;4.13;;;3.17;;
26656;SDS011;14279;50.010;8.260;2022-08-01T20:26:13;3.60;;;3.20;;
26656;SDS011;14279;50.010;8.260;2022-08-01T20:28:43;6.13;;;2.97;;
26656;SDS011;14279;50.010;8.260;2022-08-01T20:31:11;2.97;;;2.53;;
26656;SDS011;14279;50.010;8.260;2022-08-01T20:33:47;3.83;;;3.43;;
26656;SDS011;14279;50.010;8.260;2022-08-01T20:36:13;6.03;;;2.90;;
26656;SDS011;14279;50.010;8.260;2022-08-01T20:38:40;8.60;;;2.97;;
26656;SDS011;14279;50.010;8.260;2022-08-01T20:41:07;5.73;;;3.27;;
26656;SDS011;14279;50.010;8.260;2022-08-01T20:43:32;4.33;;;2.53;;
26656;SDS011;14279;50.010;8.260;2022-08-01T20:46:00;3.43;;;2.87;;
26656;SDS011;14279;50.010;8.260;2022-08-01T20:48:25;4.00;;;3.00;;
26656;SDS011;14279;50.010;8.260;2022-08-01T20:50:53;3.20;;;2.90;;
26656;SDS011;14279;50.010;8.260;2022-08-01T20:59:57;6.93;;;3.10;;
26656;SDS011;14279;50.010;8.260;2022-08-01T21:05:28;3.40;;;2.80;;